sensor_id;sensor_type;location;lat;lon;timestamp;P1;durP1;ratioP1;P2;durP2;ratioP2
52244;SDS011;55759;51.586;-1.758;2023-10-08T00:00:31;46.88;;;22.85;;
52244;SDS011;55759;51.586;-1.758;2023-10-08T00:03:08;50.60;;;21.77;;
52244;SDS011;55759;51.586;-1.758;2023-10-08T00:05:38;50.00;;;23.65;;
52244;SDS011;55759;51.586;-1.758;2023-10-08T01:08:16;38.90;;;20.20;;
52244;SDS011;55759;51.586;-1.758;2023-10-08T01:10:48;36.28;;;19.13;;
52244;SDS011;55759;51.586;-1.758;2023-10-08T07:08:44;36.55;;;14.02;;
52244;SDS011;55759;51.586;-1.758;2023-10-08T07:11:22;25.92;;;13.98;;
52244;SDS011;55759;51.586;-1.758;2023-10-08T07:14:04;31.38;;;13.88;;
52244;SDS011;55759;51.586;-1.758;2023-10-08T07:16:31;46.67;;;20.90;;
52244;SDS011;55759;51.586;-1.758;2023-10-08T07:18:57;49.75;;;24.38;;
52244;SDS011;55759;51.586;-1.758;2023-10-08T07:21:42;60.83;;;30.75;;
52244;SDS011;55759;51.586;-1.758;2023-10-08T07:24:19;33.53;;;15.45;;
52244;SDS011;55759;51.586;-1.758;2023-10-08T07:27:21;33.35;;;16.10;;
52244;SDS011;55759;51.586;-1.758;2023-10-08T07:29:54;36.08;;;15.70;;
52244;SDS011;55759;51.586;-1.758;2023-10-08T07:32:27;25.55;;;12.50;;
52244;SDS011;55759;51.586;-1.758;2023-10-08T07:34:55;23.95;;;12.93;;
52244;SDS011;55759;51.586;-1.758;2023-10-08T07:37:42;24.38;;;12.30;;
52244;SDS011;55759;51.586;-1.758;2023-10-08T07:40:28;23.23;;;12.32;;
52244;SDS011;55759;51.586;-1.758;2023-10-08T07:43:07;23.52;;;11.57;;
52244;SDS011;55759;51.586;-1.758;2023-10-08T07:45:44;22.88;;;11.50;;
52244;SDS011;55759;51.586;-1.758;2023-10-08T07:48:41;22.15;;;11.50;;
52244;SDS011;55759;51.586;-1.758;2023-10-08T07:51:15;23.98;;;11.60;;
52244;SDS011;55759;51.586;-1.758;2023-10-08T07:53:55;22.55;;;11.20;;
52244;SDS011;55759;51.586;-1.758;2023-10-08T07:56:34;20.08;;;10.25;;
52244;SDS011;55759;51.586;-1.758;2023-10-08T07:59:05;19.55;;;9.75;;
52244;SDS011;55759;51.586;-1.758;2023-10-08T08:01:34;31.30;;;10.73;;
52244;SDS011;55759;51.586;-1.758;2023-10-08T08:04:03;18.00;;;8.30;;
52244;SDS011;55759;51.586;-1.758;2023-10-08T08:06:38;19.85;;;8.77;;
52244;SDS011;55759;51.586;-1.758;2023-10-08T09:01:09;15.07;;;6.32;;
52244;SDS011;55759;51.586;-1.758;2023-10-08T09:03:38;14.43;;;6.35;;
52244;SDS011;55759;51.586;-1.758;2023-10-08T09:06:13;12.30;;;6.32;;
52244;SDS011;55759;51.586;-1.758;2023-10-08T09:11:17;15.65;;;7.07;;
52244;SDS011;55759;51.586;-1.758;2023-10-08T09:14:07;15.82;;;6.85;;
52244;SDS011;55759;51.586;-1.758;2023-10-08T09:16:35;13.70;;;7.20;;
52244;SDS011;55759;51.586;-1.758;2023-10-08T09:25:09;12.73;;;7.20;;
52244;SDS011;55759;51.586;-1.758;2023-10-08T09:27:35;15.85;;;7.53;;
52244;SDS011;55759;51.586;-1.758;2023-10-08T09:30:05;16.83;;;7.07;;
52244;SDS011;55759;51.586;-1.758;2023-10-08T09:32:37;13.32;;;6.57;;
52244;SDS011;55759;51.586;-1.758;2023-10-08T09:35:07;35.72;;;21.65;;
52244;SDS011;55759;51.586;-1.758;2023-10-08T09:37:35;15.07;;;9.68;;
52244;SDS011;55759;51.586;-1.758;2023-10-08T09:40:02;14.05;;;6.22;;
52244;SDS011;55759;51.586;-1.758;2023-10-08T09:42:34;13.25;;;6.20;;
52244;SDS011;55759;51.586;-1.758;2023-10-08T09:45:02;15.38;;;6.57;;
52244;SDS011;55759;51.586;-1.758;2023-10-08T09:47:34;13.23;;;6.25;;
52244;SDS011;55759;51.586;-1.758;2023-10-08T09:50:06;11.18;;;5.85;;
52244;SDS011;55759;51.586;-1.758;2023-10-08T09:52:59;16.67;;;5.68;;
52244;SDS011;55759;51.586;-1.758;2023-10-08T09:55:46;12.73;;;5.40;;
52244;SDS011;55759;51.586;-1.758;2023-10-08T09:58:19;13.82;;;5.55;;
52244;SDS011;55759;51.586;-1.758;2023-10-08T10:00:47;12.80;;;5.18;;
52244;SDS011;55759;51.586;-1.758;2023-10-08T10:03:15;12.35;;;4.75;;
52244;SDS011;55759;51.586;-1.758;2023-10-08T10:05:44;10.95;;;4.97;;
52244;SDS011;55759;51.586;-1.758;2023-10-08T10:08:13;9.43;;;4.60;;
52244;SDS011;55759;51.586;-1.758;2023-10-08T10:10:40;12.63;;;4.57;;
52244;SDS011;55759;51.586;-1.758;2023-10-08T10:13:13;10.27;;;4.38;;
52244;SDS011;55759;51.586;-1.758;2023-10-08T10:15:44;13.32;;;4.70;;
52244;SDS011;55759;51.586;-1.758;2023-10-08T10:18:14;10.57;;;4.28;;
52244;SDS011;55759;51.586;-1.758;2023-10-08T10:20:59;12.83;;;4.67;;
52244;SDS011;55759;51.586;-1.758;2023-10-08T10:23:48;13.20;;;4.50;;
52244;SDS011;55759;51.586;-1.758;2023-10-08T10:26:28;10.48;;;4.50;;
52244;SDS011;55759;51.586;-1.758;2023-10-08T10:31:49;10.63;;;4.28;;
52244;SDS011;55759;51.586;-1.758;2023-10-08T10:34:22;10.18;;;3.88;;
52244;SDS011;55759;51.586;-1.758;2023-10-08T10:36:52;11.00;;;4.13;;
52244;SDS011;55759;51.586;-1.758;2023-10-08T10:39:36;14.60;;;5.10;;
52244;SDS011;55759;51.586;-1.758;2023-10-08T10:42:14;10.55;;;3.70;;
52244;SDS011;55759;51.586;-1.758;2023-10-08T10:44:53;8.75;;;3.60;;
52244;SDS011;55759;51.586;-1.758;2023-10-08T10:47:21;16.17;;;8.27;;
52244;SDS011;55759;51.586;-1.758;2023-10-08T10:52:17;9.23;;;3.60;;
52244;SDS011;55759;51.586;-1.758;2023-10-08T10:55:08;9.60;;;3.70;;
52244;SDS011;55759;51.586;-1.758;2023-10-08T10:57:40;7.25;;;3.42;;
52244;SDS011;55759;51.586;-1.758;2023-10-08T11:00:29;10.40;;;3.95;;
52244;SDS011;55759;51.586;-1.758;2023-10-08T11:02:58;7.75;;;3.42;;
52244;SDS011;55759;51.586;-1.758;2023-10-08T11:05:28;10.18;;;4.10;;
52244;SDS011;55759;51.586;-1.758;2023-10-08T11:07:56;9.63;;;3.67;;
52244;SDS011;55759;51.586;-1.758;2023-10-08T11:10:30;11.88;;;4.43;;
52244;SDS011;55759;51.586;-1.758;2023-10-08T11:13:03;11.18;;;3.90;;
52244;SDS011;55759;51.586;-1.758;2023-10-08T11:15:39;6.45;;;3.38;;
52244;SDS011;55759;51.586;-1.758;2023-10-08T11:18:14;9.18;;;3.47;;
52244;SDS011;55759;51.586;-1.758;2023-10-08T11:23:47;9.35;;;3.90;;
52244;SDS011;55759;51.586;-1.758;2023-10-08T11:26:24;11.52;;;5.30;;
52244;SDS011;55759;51.586;-1.758;2023-10-08T11:29:00;10.82;;;4.63;;
52244;SDS011;55759;51.586;-1.758;2023-10-08T11:31:28;21.52;;;10.90;;
52244;SDS011;55759;51.586;-1.758;2023-10-08T11:34:01;13.32;;;4.40;;
52244;SDS011;55759;51.586;-1.758;2023-10-08T11:36:36;6.30;;;3.10;;
52244;SDS011;55759;51.586;-1.758;2023-10-08T11:39:21;7.78;;;3.20;;
52244;SDS011;55759;51.586;-1.758;2023-10-08T11:45:20;7.32;;;3.20;;
52244;SDS011;55759;51.586;-1.758;2023-10-08T11:47:49;9.13;;;3.30;;
52244;SDS011;55759;51.586;-1.758;2023-10-08T11:50:36;8.57;;;2.92;;
52244;SDS011;55759;51.586;-1.758;2023-10-08T11:53:10;8.90;;;3.33;;
52244;SDS011;55759;51.586;-1.758;2023-10-08T12:00:45;5.47;;;3.03;;
52244;SDS011;55759;51.586;-1.758;2023-10-08T12:03:17;4.82;;;2.85;;
52244;SDS011;55759;51.586;-1.758;2023-10-08T12:11:50;8.20;;;3.28;;
52244;SDS011;55759;51.586;-1.758;2023-10-08T12:14:53;5.75;;;3.10;;
52244;SDS011;55759;51.586;-1.758;2023-10-08T12:20:44;6.72;;;3.20;;
52244;SDS011;55759;51.586;-1.758;2023-10-08T12:23:20;6.38;;;3.22;;
52244;SDS011;55759;51.586;-1.758;2023-10-08T12:29:36;13.30;;;6.65;;
52244;SDS011;55759;51.586;-1.758;2023-10-08T12:32:52;8.18;;;3.60;;
52244;SDS011;55759;51.586;-1.758;2023-10-08T13:05:17;8.50;;;3.03;;
52244;SDS011;55759;51.586;-1.758;2023-10-08T13:08:11;6.68;;;3.20;;
52244;SDS011;55759;51.586;-1.758;2023-10-08T13:10:40;9.43;;;3.38;;
52244;SDS011;55759;51.586;-1.758;2023-10-08T13:23:53;6.75;;;2.85;;
52244;SDS011;55759;51.586;-1.758;2023-10-08T13:37:00;6.55;;;3.00;;
52244;SDS011;55759;51.586;-1.758;2023-10-08T15:07:34;8.40;;;3.55;;
52244;SDS011;55759;51.586;-1.758;2023-10-08T15:13:03;10.70;;;3.58;;
52244;SDS011;55759;51.586;-1.758;2023-10-08T15:15:48;7.38;;;3.40;;
52244;SDS011;55759;51.586;-1.758;2023-10-08T15:51:18;6.40;;;3.50;;
52244;SDS011;55759;51.586;-1.758;2023-10-08T15:54:01;10.85;;;3.80;;
52244;SDS011;55759;51.586;-1.758;2023-10-08T15:56:32;7.75;;;3.97;;
52244;SDS011;55759;51.586;-1.758;2023-10-08T15:59:03;7.32;;;3.65;;
52244;SDS011;55759;51.586;-1.758;2023-10-08T16:03:55;7.15;;;3.67;;
52244;SDS011;55759;51.586;-1.758;2023-10-08T16:06:26;9.85;;;3.60;;
52244;SDS011;55759;51.586;-1.758;2023-10-08T16:08:52;7.63;;;3.42;;
52244;SDS011;55759;51.586;-1.758;2023-10-08T16:17:11;7.72;;;3.50;;
52244;SDS011;55759;51.586;-1.758;2023-10-08T16:20:14;7.60;;;3.50;;
52244;SDS011;55759;51.586;-1.758;2023-10-08T16:26:17;7.75;;;3.47;;
52244;SDS011;55759;51.586;-1.758;2023-10-08T16:29:07;8.50;;;3.58;;
52244;SDS011;55759;51.586;-1.758;2023-10-08T16:35:21;9.15;;;3.22;;
52244;SDS011;55759;51.586;-1.758;2023-10-08T16:38:18;7.68;;;3.45;;
52244;SDS011;55759;51.586;-1.758;2023-10-08T16:40:49;7.50;;;3.30;;
52244;SDS011;55759;51.586;-1.758;2023-10-08T16:43:20;8.32;;;3.55;;
52244;SDS011;55759;51.586;-1.758;2023-10-08T16:45:51;8.00;;;3.67;;
52244;SDS011;55759;51.586;-1.758;2023-10-08T16:48:19;11.00;;;3.42;;
52244;SDS011;55759;51.586;-1.758;2023-10-08T16:50:56;7.35;;;3.38;;
52244;SDS011;55759;51.586;-1.758;2023-10-08T16:53:36;7.28;;;3.42;;
52244;SDS011;55759;51.586;-1.758;2023-10-08T16:56:17;11.18;;;6.28;;
52244;SDS011;55759;51.586;-1.758;2023-10-08T16:58:57;11.50;;;6.50;;
52244;SDS011;55759;51.586;-1.758;2023-10-08T17:01:38;11.18;;;6.05;;
52244;SDS011;55759;51.586;-1.758;2023-10-08T17:04:11;11.25;;;4.82;;
52244;SDS011;55759;51.586;-1.758;2023-10-08T17:06:40;11.77;;;4.75;;
52244;SDS011;55759;51.586;-1.758;2023-10-08T17:09:32;9.75;;;4.40;;
52244;SDS011;55759;51.586;-1.758;2023-10-08T17:12:01;17.80;;;8.63;;
52244;SDS011;55759;51.586;-1.758;2023-10-08T17:14:46;27.30;;;13.13;;
52244;SDS011;55759;51.586;-1.758;2023-10-08T17:20:20;26.70;;;13.30;;
52244;SDS011;55759;51.586;-1.758;2023-10-08T17:22:52;23.08;;;10.85;;
52244;SDS011;55759;51.586;-1.758;2023-10-08T17:25:45;20.02;;;10.35;;
52244;SDS011;55759;51.586;-1.758;2023-10-08T17:28:44;16.08;;;8.57;;
52244;SDS011;55759;51.586;-1.758;2023-10-08T17:31:18;15.95;;;8.30;;
52244;SDS011;55759;51.586;-1.758;2023-10-08T17:33:49;15.00;;;7.20;;
52244;SDS011;55759;51.586;-1.758;2023-10-08T17:36:22;14.50;;;7.18;;
52244;SDS011;55759;51.586;-1.758;2023-10-08T17:39:15;13.52;;;6.18;;
52244;SDS011;55759;51.586;-1.758;2023-10-08T17:52:13;14.95;;;7.63;;
52244;SDS011;55759;51.586;-1.758;2023-10-08T18:05:46;19.42;;;10.77;;
52244;SDS011;55759;51.586;-1.758;2023-10-08T18:08:52;15.38;;;8.55;;
52244;SDS011;55759;51.586;-1.758;2023-10-08T18:14:47;16.50;;;8.02;;
52244;SDS011;55759;51.586;-1.758;2023-10-08T18:17:28;13.18;;;7.88;;
52244;SDS011;55759;51.586;-1.758;2023-10-08T18:20:07;13.93;;;8.52;;
52244;SDS011;55759;51.586;-1.758;2023-10-08T18:49:43;36.67;;;21.30;;
52244;SDS011;55759;51.586;-1.758;2023-10-08T19:02:39;22.17;;;12.95;;
52244;SDS011;55759;51.586;-1.758;2023-10-08T21:50:37;20.38;;;8.30;;
52244;SDS011;55759;51.586;-1.758;2023-10-08T21:53:43;25.50;;;8.57;;
52244;SDS011;55759;51.586;-1.758;2023-10-08T22:03:28;15.75;;;7.82;;
52244;SDS011;55759;51.586;-1.758;2023-10-08T22:06:34;17.17;;;8.20;;
52244;SDS011;55759;51.586;-1.758;2023-10-08T22:12:50;17.73;;;8.93;;
52244;SDS011;55759;51.586;-1.758;2023-10-08T22:18:52;20.15;;;8.70;;
52244;SDS011;55759;51.586;-1.758;2023-10-08T22:21:53;17.40;;;8.82;;
52244;SDS011;55759;51.586;-1.758;2023-10-08T22:24:55;13.45;;;7.68;;
52244;SDS011;55759;51.586;-1.758;2023-10-08T22:31:01;15.05;;;7.78;;
52244;SDS011;55759;51.586;-1.758;2023-10-08T22:36:48;13.65;;;7.72;;
52244;SDS011;55759;51.586;-1.758;2023-10-08T22:39:57;17.20;;;8.73;;
52244;SDS011;55759;51.586;-1.758;2023-10-08T22:52:50;16.42;;;9.40;;
52244;SDS011;55759;51.586;-1.758;2023-10-08T22:58:55;15.57;;;8.52;;
52244;SDS011;55759;51.586;-1.758;2023-10-08T23:19:01;19.73;;;10.20;;
52244;SDS011;55759;51.586;-1.758;2023-10-08T23:32:05;21.40;;;11.30;;
52244;SDS011;55759;51.586;-1.758;2023-10-08T23:42:11;19.98;;;11.18;;
52244;SDS011;55759;51.586;-1.758;2023-10-08T23:51:57;20.98;;;11.60;;
52244;SDS011;55759;51.586;-1.758;2023-10-08T23:54:57;18.73;;;11.65;;
